Terminal Aerodrome Forecast
Issued by NWS Des Moines, IA

Home | Current Version | Previous Version | Text Only | Print | Product List | Glossary On
Versions: 1 2 3 4 5 6 7 8 9 10 11 12 13 14 15 16 17 18 19 20 21 22 23 24 25 26 27 28 29 30 31 32 33 34 35 36 37 38 39
000
FTUS43 KDMX 242340
TAFALO
TAF
KALO 242340Z 2500/2524 13014G20KT P6SM VCSH SCT015 BKN040
     FM250400 11015KT 6SM BR SCT018 BKN025
     FM250800 09014KT 5SM BR VCSH BKN008 OVC018
     FM251200 09017G24KT 4SM -RA BR OVC007
     FM251900 06016G24KT P6SM OVC012=

USA.gov is the U.S. government's official web portal to all federal, state and local government web resources and services.